sensor_id;sensor_type;location;lat;lon;timestamp;pressure;altitude;pressure_sealevel;temperature;humidity
1480;BME280;732;51.698;4.886;2024-01-30T00:01:55;102798.97;;;5.48;85.62
1480;BME280;732;51.698;4.886;2024-01-30T00:04:24;102772.28;;;5.19;85.81
1480;BME280;732;51.698;4.886;2024-01-30T00:06:52;102796.66;;;5.42;86.00
1480;BME280;732;51.698;4.886;2024-01-30T00:09:22;102798.19;;;5.46;86.03
1480;BME280;732;51.698;4.886;2024-01-30T00:11:51;102793.31;;;5.38;85.60
1480;BME280;732;51.698;4.886;2024-01-30T00:14:19;102781.63;;;5.26;85.84
1480;BME280;732;51.698;4.886;2024-01-30T00:16:48;102795.19;;;5.36;85.90
1480;BME280;732;51.698;4.886;2024-01-30T00:19:17;102775.34;;;5.27;85.83
1480;BME280;732;51.698;4.886;2024-01-30T00:21:45;102777.50;;;5.37;85.79
1480;BME280;732;51.698;4.886;2024-01-30T00:24:14;102777.41;;;5.38;85.91
1480;BME280;732;51.698;4.886;2024-01-30T00:26:44;102777.50;;;5.37;85.87
1480;BME280;732;51.698;4.886;2024-01-30T00:29:12;102770.22;;;5.40;85.83
1480;BME280;732;51.698;4.886;2024-01-30T00:31:46;102765.66;;;5.42;86.01
1480;BME280;732;51.698;4.886;2024-01-30T00:34:15;102755.69;;;5.32;86.24
1480;BME280;732;51.698;4.886;2024-01-30T00:36:43;102774.91;;;5.51;86.81
1480;BME280;732;51.698;4.886;2024-01-30T00:39:12;102736.16;;;5.33;86.66
1480;BME280;732;51.698;4.886;2024-01-30T00:41:44;102767.72;;;5.53;86.66
1480;BME280;732;51.698;4.886;2024-01-30T00:44:12;102788.13;;;5.67;86.34
1480;BME280;732;51.698;4.886;2024-01-30T00:46:40;102778.78;;;5.76;86.24
1480;BME280;732;51.698;4.886;2024-01-30T00:49:10;102779.38;;;5.81;86.55
1480;BME280;732;51.698;4.886;2024-01-30T00:51:38;102765.06;;;5.84;86.44
1480;BME280;732;51.698;4.886;2024-01-30T00:54:07;102769.41;;;5.85;86.57
1480;BME280;732;51.698;4.886;2024-01-30T00:56:35;102760.78;;;5.81;86.33
1480;BME280;732;51.698;4.886;2024-01-30T00:59:05;102772.28;;;5.82;86.61
1480;BME280;732;51.698;4.886;2024-01-30T01:01:34;102758.91;;;5.83;86.81
1480;BME280;732;51.698;4.886;2024-01-30T01:04:02;102706.56;;;5.55;86.86
1480;BME280;732;51.698;4.886;2024-01-30T01:06:31;102764.25;;;5.98;86.48
1480;BME280;732;51.698;4.886;2024-01-30T01:09:00;102769.38;;;6.01;86.48
1480;BME280;732;51.698;4.886;2024-01-30T01:11:31;102760.00;;;6.09;85.97
1480;BME280;732;51.698;4.886;2024-01-30T01:14:00;102767.31;;;6.20;85.98
1480;BME280;732;51.698;4.886;2024-01-30T01:16:29;102768.56;;;6.29;85.72
1480;BME280;732;51.698;4.886;2024-01-30T01:18:58;102762.31;;;6.30;85.26
1480;BME280;732;51.698;4.886;2024-01-30T01:21:27;102754.59;;;6.25;85.34
1480;BME280;732;51.698;4.886;2024-01-30T01:23:56;102762.78;;;6.37;85.37
1480;BME280;732;51.698;4.886;2024-01-30T01:26:25;102757.19;;;6.41;84.88
1480;BME280;732;51.698;4.886;2024-01-30T01:28:53;102743.03;;;6.41;85.02
1480;BME280;732;51.698;4.886;2024-01-30T01:31:22;102746.34;;;6.45;84.84
1480;BME280;732;51.698;4.886;2024-01-30T01:33:53;102750.47;;;6.50;84.78
1480;BME280;732;51.698;4.886;2024-01-30T01:36:22;102717.88;;;6.32;84.38
1480;BME280;732;51.698;4.886;2024-01-30T01:38:51;102743.66;;;6.46;84.44
1480;BME280;732;51.698;4.886;2024-01-30T01:41:19;102747.50;;;6.40;84.40
1480;BME280;732;51.698;4.886;2024-01-30T01:43:47;102740.84;;;6.33;84.31
1480;BME280;732;51.698;4.886;2024-01-30T01:46:17;102738.41;;;6.30;84.46
1480;BME280;732;51.698;4.886;2024-01-30T01:48:46;102746.25;;;6.32;84.42
1480;BME280;732;51.698;4.886;2024-01-30T01:51:16;102748.16;;;6.30;84.24
1480;BME280;732;51.698;4.886;2024-01-30T01:53:45;102749.38;;;6.09;85.08
1480;BME280;732;51.698;4.886;2024-01-30T01:56:14;102742.22;;;5.96;85.25
1480;BME280;732;51.698;4.886;2024-01-30T01:58:44;102705.47;;;5.73;84.72
1480;BME280;732;51.698;4.886;2024-01-30T02:01:15;102729.59;;;5.85;85.09
1480;BME280;732;51.698;4.886;2024-01-30T02:03:45;102743.19;;;5.94;84.97
1480;BME280;732;51.698;4.886;2024-01-30T02:06:16;102746.03;;;5.91;85.67
1480;BME280;732;51.698;4.886;2024-01-30T02:08:45;102712.28;;;5.63;85.60
1480;BME280;732;51.698;4.886;2024-01-30T02:11:14;102702.53;;;5.64;85.86
1480;BME280;732;51.698;4.886;2024-01-30T02:13:43;102740.16;;;5.86;86.23
1480;BME280;732;51.698;4.886;2024-01-30T02:16:12;102727.50;;;5.90;86.08
1480;BME280;732;51.698;4.886;2024-01-30T02:18:41;102738.22;;;5.88;86.21
1480;BME280;732;51.698;4.886;2024-01-30T02:21:14;102720.38;;;5.76;86.49
1480;BME280;732;51.698;4.886;2024-01-30T02:23:44;102716.88;;;5.90;86.21
1480;BME280;732;51.698;4.886;2024-01-30T02:26:15;102728.00;;;5.97;85.73
1480;BME280;732;51.698;4.886;2024-01-30T02:28:43;102730.25;;;5.88;86.38
1480;BME280;732;51.698;4.886;2024-01-30T02:31:12;102715.28;;;5.87;86.35
1480;BME280;732;51.698;4.886;2024-01-30T02:33:40;102706.25;;;5.90;86.25
1480;BME280;732;51.698;4.886;2024-01-30T02:36:09;102673.16;;;5.67;86.49
1480;BME280;732;51.698;4.886;2024-01-30T02:38:39;102663.75;;;5.61;86.09
1480;BME280;732;51.698;4.886;2024-01-30T02:41:07;102686.00;;;5.89;85.96
1480;BME280;732;51.698;4.886;2024-01-30T02:43:36;102705.63;;;6.01;86.01
1480;BME280;732;51.698;4.886;2024-01-30T02:46:04;102696.88;;;5.99;85.94
1480;BME280;732;51.698;4.886;2024-01-30T02:48:33;102714.09;;;6.07;86.35
1480;BME280;732;51.698;4.886;2024-01-30T02:51:02;102717.00;;;6.17;85.82
1480;BME280;732;51.698;4.886;2024-01-30T02:53:30;102713.03;;;6.24;85.95
1480;BME280;732;51.698;4.886;2024-01-30T02:56:02;102709.72;;;6.21;85.98
1480;BME280;732;51.698;4.886;2024-01-30T02:58:32;102694.72;;;6.20;85.49
1480;BME280;732;51.698;4.886;2024-01-30T03:01:01;102697.00;;;6.26;85.45
1480;BME280;732;51.698;4.886;2024-01-30T03:03:30;102708.56;;;6.39;85.63
1480;BME280;732;51.698;4.886;2024-01-30T03:05:58;102721.22;;;6.50;84.83
1480;BME280;732;51.698;4.886;2024-01-30T03:08:26;102690.34;;;6.33;84.74
1480;BME280;732;51.698;4.886;2024-01-30T03:10:55;102717.31;;;6.56;84.76
1480;BME280;732;51.698;4.886;2024-01-30T03:13:25;102713.94;;;6.54;84.84
1480;BME280;732;51.698;4.886;2024-01-30T03:15:53;102708.97;;;6.62;85.00
1480;BME280;732;51.698;4.886;2024-01-30T03:18:22;102715.59;;;6.69;84.64
1480;BME280;732;51.698;4.886;2024-01-30T03:20:50;102645.84;;;6.37;84.46
1480;BME280;732;51.698;4.886;2024-01-30T03:23:18;102703.41;;;6.80;84.36
1480;BME280;732;51.698;4.886;2024-01-30T03:25:47;102701.19;;;6.73;84.52
1480;BME280;732;51.698;4.886;2024-01-30T03:28:15;102705.63;;;6.73;83.99
1480;BME280;732;51.698;4.886;2024-01-30T03:30:45;102703.06;;;6.71;84.59
1480;BME280;732;51.698;4.886;2024-01-30T03:33:14;102683.44;;;6.60;84.38
1480;BME280;732;51.698;4.886;2024-01-30T03:35:42;102709.78;;;6.77;83.93
1480;BME280;732;51.698;4.886;2024-01-30T03:38:11;102710.06;;;6.87;84.26
1480;BME280;732;51.698;4.886;2024-01-30T03:40:39;102713.66;;;6.86;83.99
1480;BME280;732;51.698;4.886;2024-01-30T03:43:07;102714.69;;;6.98;84.01
1480;BME280;732;51.698;4.886;2024-01-30T03:45:36;102698.84;;;6.96;83.53
1480;BME280;732;51.698;4.886;2024-01-30T03:48:07;102701.69;;;6.93;83.29
1480;BME280;732;51.698;4.886;2024-01-30T03:50:35;102689.66;;;6.87;83.31
1480;BME280;732;51.698;4.886;2024-01-30T03:53:04;102696.03;;;6.85;83.71
1480;BME280;732;51.698;4.886;2024-01-30T03:55:32;102697.53;;;6.89;83.91
1480;BME280;732;51.698;4.886;2024-01-30T03:58:01;102699.38;;;7.01;84.10
1480;BME280;732;51.698;4.886;2024-01-30T04:00:29;102702.69;;;7.05;83.35
1480;BME280;732;51.698;4.886;2024-01-30T04:02:58;102699.53;;;7.13;83.40
1480;BME280;732;51.698;4.886;2024-01-30T04:05:28;102677.63;;;6.95;83.00
1480;BME280;732;51.698;4.886;2024-01-30T04:07:56;102683.53;;;7.00;83.42
1480;BME280;732;51.698;4.886;2024-01-30T04:10:25;102690.59;;;7.14;83.12
1480;BME280;732;51.698;4.886;2024-01-30T04:12:53;102686.38;;;7.24;82.73
1480;BME280;732;51.698;4.886;2024-01-30T04:15:22;102664.50;;;7.06;82.61
1480;BME280;732;51.698;4.886;2024-01-30T04:17:51;102633.28;;;6.95;82.37
1480;BME280;732;51.698;4.886;2024-01-30T04:20:20;102681.75;;;7.13;82.88
1480;BME280;732;51.698;4.886;2024-01-30T04:22:49;102688.38;;;7.20;82.72
1480;BME280;732;51.698;4.886;2024-01-30T04:25:18;102683.94;;;7.21;82.84
1480;BME280;732;51.698;4.886;2024-01-30T04:27:47;102664.59;;;7.04;82.46
1480;BME280;732;51.698;4.886;2024-01-30T04:30:16;102685.53;;;7.23;83.17
1480;BME280;732;51.698;4.886;2024-01-30T04:32:44;102682.41;;;7.17;82.54
1480;BME280;732;51.698;4.886;2024-01-30T04:35:13;102680.63;;;7.17;82.63
1480;BME280;732;51.698;4.886;2024-01-30T04:37:42;102669.63;;;7.22;82.89
1480;BME280;732;51.698;4.886;2024-01-30T04:40:12;102662.41;;;7.24;82.63
1480;BME280;732;51.698;4.886;2024-01-30T04:42:41;102664.66;;;7.30;82.80
1480;BME280;732;51.698;4.886;2024-01-30T04:45:09;102671.41;;;7.36;82.30
1480;BME280;732;51.698;4.886;2024-01-30T04:47:38;102668.81;;;7.34;82.22
1480;BME280;732;51.698;4.886;2024-01-30T04:50:08;102671.41;;;7.36;82.32
1480;BME280;732;51.698;4.886;2024-01-30T04:52:37;102654.13;;;7.29;82.48
1480;BME280;732;51.698;4.886;2024-01-30T04:55:07;102677.81;;;7.46;81.96
1480;BME280;732;51.698;4.886;2024-01-30T04:57:37;102674.28;;;7.46;82.02
1480;BME280;732;51.698;4.886;2024-01-30T05:00:07;102672.47;;;7.46;82.15
1480;BME280;732;51.698;4.886;2024-01-30T05:02:35;102650.13;;;7.36;81.86
1480;BME280;732;51.698;4.886;2024-01-30T05:05:05;102646.69;;;7.34;82.03
1480;BME280;732;51.698;4.886;2024-01-30T05:07:33;102670.25;;;7.53;82.09
1480;BME280;732;51.698;4.886;2024-01-30T05:10:03;102662.47;;;7.50;82.45
1480;BME280;732;51.698;4.886;2024-01-30T05:12:33;102658.88;;;7.51;81.89
1480;BME280;732;51.698;4.886;2024-01-30T05:15:04;102661.59;;;7.49;81.95
1480;BME280;732;51.698;4.886;2024-01-30T05:17:33;102671.66;;;7.59;81.98
1480;BME280;732;51.698;4.886;2024-01-30T05:20:02;102630.72;;;7.34;82.56
1480;BME280;732;51.698;4.886;2024-01-30T05:22:32;102660.06;;;7.60;82.11
1480;BME280;732;51.698;4.886;2024-01-30T05:25:00;102644.38;;;7.55;82.40
1480;BME280;732;51.698;4.886;2024-01-30T05:27:29;102679.94;;;7.67;82.32
1480;BME280;732;51.698;4.886;2024-01-30T05:29:57;102635.28;;;7.32;82.56
1480;BME280;732;51.698;4.886;2024-01-30T05:32:27;102660.78;;;7.62;82.18
1480;BME280;732;51.698;4.886;2024-01-30T05:34:56;102657.91;;;7.65;82.60
1480;BME280;732;51.698;4.886;2024-01-30T05:37:24;102638.53;;;7.63;82.11
1480;BME280;732;51.698;4.886;2024-01-30T05:39:53;102664.00;;;7.80;81.90
1480;BME280;732;51.698;4.886;2024-01-30T05:42:21;102652.91;;;7.60;81.78
1480;BME280;732;51.698;4.886;2024-01-30T05:44:50;102684.31;;;7.68;82.64
1480;BME280;732;51.698;4.886;2024-01-30T05:47:18;102673.44;;;7.58;82.66
1480;BME280;732;51.698;4.886;2024-01-30T05:49:48;102632.56;;;7.46;82.81
1480;BME280;732;51.698;4.886;2024-01-30T05:52:17;102639.16;;;7.53;82.54
1480;BME280;732;51.698;4.886;2024-01-30T05:54:46;102672.94;;;7.79;82.09
1480;BME280;732;51.698;4.886;2024-01-30T05:57:15;102682.34;;;7.84;82.35
1480;BME280;732;51.698;4.886;2024-01-30T05:59:44;102662.59;;;7.61;82.41
1480;BME280;732;51.698;4.886;2024-01-30T06:02:14;102671.66;;;7.59;83.03
1480;BME280;732;51.698;4.886;2024-01-30T06:04:43;102681.13;;;7.76;82.89
1480;BME280;732;51.698;4.886;2024-01-30T06:07:13;102683.59;;;7.92;82.34
1480;BME280;732;51.698;4.886;2024-01-30T06:09:42;102684.88;;;7.99;82.20
1480;BME280;732;51.698;4.886;2024-01-30T06:12:10;102695.31;;;7.89;81.70
1480;BME280;732;51.698;4.886;2024-01-30T06:14:39;102669.22;;;7.81;81.85
1480;BME280;732;51.698;4.886;2024-01-30T06:17:13;102669.00;;;7.97;81.63
1480;BME280;732;51.698;4.886;2024-01-30T06:19:44;102681.25;;;8.00;81.14
1480;BME280;732;51.698;4.886;2024-01-30T06:22:15;102688.50;;;7.98;81.52
1480;BME280;732;51.698;4.886;2024-01-30T06:24:44;102686.38;;;7.90;81.77
1480;BME280;732;51.698;4.886;2024-01-30T06:27:15;102699.16;;;7.98;81.78
1480;BME280;732;51.698;4.886;2024-01-30T06:29:44;102693.94;;;8.09;81.55
1480;BME280;732;51.698;4.886;2024-01-30T06:32:13;102692.44;;;8.18;80.97
1480;BME280;732;51.698;4.886;2024-01-30T06:34:42;102659.50;;;8.06;80.52
1480;BME280;732;51.698;4.886;2024-01-30T06:37:11;102702.38;;;8.16;80.80
1480;BME280;732;51.698;4.886;2024-01-30T06:39:41;102685.75;;;7.99;80.67
1480;BME280;732;51.698;4.886;2024-01-30T06:42:11;102712.38;;;8.12;80.96
1480;BME280;732;51.698;4.886;2024-01-30T06:44:39;102712.91;;;8.17;80.92
1480;BME280;732;51.698;4.886;2024-01-30T06:47:08;102707.47;;;8.19;80.57
1480;BME280;732;51.698;4.886;2024-01-30T06:49:36;102707.81;;;8.14;80.75
1480;BME280;732;51.698;4.886;2024-01-30T06:52:06;102711.28;;;8.28;80.57
1480;BME280;732;51.698;4.886;2024-01-30T06:54:35;102709.81;;;8.36;80.40
1480;BME280;732;51.698;4.886;2024-01-30T06:57:05;102718.03;;;8.20;80.92
1480;BME280;732;51.698;4.886;2024-01-30T06:59:36;102712.59;;;8.22;81.08
1480;BME280;732;51.698;4.886;2024-01-30T07:02:04;102721.00;;;8.29;81.18
1480;BME280;732;51.698;4.886;2024-01-30T07:04:35;102715.91;;;8.26;80.95
1480;BME280;732;51.698;4.886;2024-01-30T07:07:04;102714.31;;;8.23;80.63
1480;BME280;732;51.698;4.886;2024-01-30T07:09:39;102717.06;;;8.22;80.96
1480;BME280;732;51.698;4.886;2024-01-30T07:12:09;102729.84;;;8.16;81.40
1480;BME280;732;51.698;4.886;2024-01-30T07:14:38;102730.16;;;8.12;81.58
1480;BME280;732;51.698;4.886;2024-01-30T07:17:07;102695.00;;;8.07;81.31
1480;BME280;732;51.698;4.886;2024-01-30T07:19:36;102715.16;;;8.11;81.80
1480;BME280;732;51.698;4.886;2024-01-30T07:22:04;102710.47;;;8.14;81.81
1480;BME280;732;51.698;4.886;2024-01-30T07:24:33;102723.91;;;8.26;81.69
1480;BME280;732;51.698;4.886;2024-01-30T07:27:03;102740.41;;;8.31;81.69
1480;BME280;732;51.698;4.886;2024-01-30T07:29:33;102745.31;;;8.24;82.33
1480;BME280;732;51.698;4.886;2024-01-30T07:32:01;102741.81;;;8.24;82.92
1480;BME280;732;51.698;4.886;2024-01-30T07:34:30;102748.09;;;8.23;82.86
1480;BME280;732;51.698;4.886;2024-01-30T07:37:05;102755.13;;;8.11;83.47
1480;BME280;732;51.698;4.886;2024-01-30T07:39:35;102757.69;;;8.12;83.74
1480;BME280;732;51.698;4.886;2024-01-30T07:42:04;102754.91;;;8.14;84.05
1480;BME280;732;51.698;4.886;2024-01-30T07:44:35;102750.75;;;8.23;84.07
1480;BME280;732;51.698;4.886;2024-01-30T07:47:05;102760.16;;;8.28;84.04
1480;BME280;732;51.698;4.886;2024-01-30T07:49:34;102746.72;;;8.30;83.89
1480;BME280;732;51.698;4.886;2024-01-30T07:52:06;102745.78;;;8.57;83.31
1480;BME280;732;51.698;4.886;2024-01-30T07:54:35;102722.47;;;8.59;82.53
1480;BME280;732;51.698;4.886;2024-01-30T07:57:18;102744.13;;;8.54;82.68
1480;BME280;732;51.698;4.886;2024-01-30T07:59:48;102746.94;;;8.52;83.01
1480;BME280;732;51.698;4.886;2024-01-30T08:02:16;102687.66;;;8.23;82.91
1480;BME280;732;51.698;4.886;2024-01-30T08:04:45;102728.84;;;8.69;82.68
1480;BME280;732;51.698;4.886;2024-01-30T08:07:16;102748.50;;;8.68;82.70
1480;BME280;732;51.698;4.886;2024-01-30T08:09:45;102752.75;;;8.83;82.26
1480;BME280;732;51.698;4.886;2024-01-30T08:12:14;102758.72;;;8.87;82.29
1480;BME280;732;51.698;4.886;2024-01-30T08:14:43;102746.84;;;8.91;82.03
1480;BME280;732;51.698;4.886;2024-01-30T08:17:12;102745.13;;;8.90;81.95
1480;BME280;732;51.698;4.886;2024-01-30T08:19:41;102759.00;;;8.95;82.05
1480;BME280;732;51.698;4.886;2024-01-30T08:22:09;102763.16;;;8.99;82.28
1480;BME280;732;51.698;4.886;2024-01-30T08:24:38;102760.22;;;9.15;81.71
1480;BME280;732;51.698;4.886;2024-01-30T08:27:07;102734.25;;;9.17;81.29
1480;BME280;732;51.698;4.886;2024-01-30T08:29:36;102764.72;;;9.39;80.80
1480;BME280;732;51.698;4.886;2024-01-30T08:32:06;102747.88;;;9.26;80.95
1480;BME280;732;51.698;4.886;2024-01-30T08:34:36;102747.59;;;9.42;80.42
1480;BME280;732;51.698;4.886;2024-01-30T08:37:05;102753.41;;;9.36;80.21
1480;BME280;732;51.698;4.886;2024-01-30T08:39:34;102757.00;;;9.59;79.98
1480;BME280;732;51.698;4.886;2024-01-30T08:42:03;102761.88;;;9.65;79.74
1480;BME280;732;51.698;4.886;2024-01-30T08:44:31;102766.28;;;9.66;79.37
1480;BME280;732;51.698;4.886;2024-01-30T08:47:00;102774.91;;;9.70;79.53
1480;BME280;732;51.698;4.886;2024-01-30T08:49:28;102724.19;;;9.45;79.56
1480;BME280;732;51.698;4.886;2024-01-30T08:51:58;102737.94;;;9.52;79.24
1480;BME280;732;51.698;4.886;2024-01-30T08:54:27;102779.41;;;9.69;79.34
1480;BME280;732;51.698;4.886;2024-01-30T08:56:55;102776.75;;;9.69;79.32
1480;BME280;732;51.698;4.886;2024-01-30T08:59:25;102780.72;;;9.63;79.71
1480;BME280;732;51.698;4.886;2024-01-30T09:01:54;102768.41;;;9.49;79.64
1480;BME280;732;51.698;4.886;2024-01-30T09:04:38;102777.19;;;9.63;80.10
1480;BME280;732;51.698;4.886;2024-01-30T09:07:09;102745.81;;;9.54;79.46
1480;BME280;732;51.698;4.886;2024-01-30T09:09:38;102782.19;;;9.68;79.77
1480;BME280;732;51.698;4.886;2024-01-30T09:12:09;102774.78;;;9.71;79.43
1480;BME280;732;51.698;4.886;2024-01-30T09:14:40;102782.75;;;9.84;78.95
1480;BME280;732;51.698;4.886;2024-01-30T09:17:09;102756.66;;;9.63;78.76
1480;BME280;732;51.698;4.886;2024-01-30T09:19:38;102798.13;;;9.69;79.48
1480;BME280;732;51.698;4.886;2024-01-30T09:22:08;102789.06;;;9.59;80.09
1480;BME280;732;51.698;4.886;2024-01-30T09:24:37;102785.47;;;9.71;79.65
1480;BME280;732;51.698;4.886;2024-01-30T09:27:05;102785.94;;;9.65;80.08
1480;BME280;732;51.698;4.886;2024-01-30T09:29:33;102784.25;;;9.64;79.77
1480;BME280;732;51.698;4.886;2024-01-30T09:32:05;102795.50;;;9.92;79.29
1480;BME280;732;51.698;4.886;2024-01-30T09:34:34;102789.00;;;9.72;79.15
1480;BME280;732;51.698;4.886;2024-01-30T09:37:03;102803.53;;;9.92;79.17
1480;BME280;732;51.698;4.886;2024-01-30T09:39:33;102789.25;;;9.80;79.48
1480;BME280;732;51.698;4.886;2024-01-30T09:42:08;102796.16;;;9.71;79.76
1480;BME280;732;51.698;4.886;2024-01-30T09:44:43;102785.72;;;9.68;79.31
1480;BME280;732;51.698;4.886;2024-01-30T09:47:12;102805.13;;;9.94;79.17
1480;BME280;732;51.698;4.886;2024-01-30T09:49:43;102783.56;;;9.85;79.12
1480;BME280;732;51.698;4.886;2024-01-30T09:52:13;102818.31;;;9.85;79.17
1480;BME280;732;51.698;4.886;2024-01-30T09:54:44;102825.25;;;9.87;79.46
1480;BME280;732;51.698;4.886;2024-01-30T09:57:13;102802.28;;;9.85;79.29
1480;BME280;732;51.698;4.886;2024-01-30T09:59:42;102832.88;;;10.05;78.97
1480;BME280;732;51.698;4.886;2024-01-30T10:02:11;102828.34;;;9.94;78.97
1480;BME280;732;51.698;4.886;2024-01-30T10:04:40;102781.66;;;9.87;78.63
1480;BME280;732;51.698;4.886;2024-01-30T10:07:10;102817.63;;;9.94;79.12
1480;BME280;732;51.698;4.886;2024-01-30T10:09:40;102829.72;;;10.11;78.80
1480;BME280;732;51.698;4.886;2024-01-30T10:12:10;102817.25;;;10.23;78.06
1480;BME280;732;51.698;4.886;2024-01-30T10:14:39;102831.94;;;10.17;77.90
1480;BME280;732;51.698;4.886;2024-01-30T10:17:08;102819.81;;;10.36;77.88
1480;BME280;732;51.698;4.886;2024-01-30T10:19:48;102838.38;;;10.14;78.16
1480;BME280;732;51.698;4.886;2024-01-30T10:22:17;102841.31;;;10.23;78.08
1480;BME280;732;51.698;4.886;2024-01-30T10:24:46;102842.13;;;10.12;78.17
1480;BME280;732;51.698;4.886;2024-01-30T10:27:16;102804.56;;;10.02;78.34
1480;BME280;732;51.698;4.886;2024-01-30T10:29:48;102836.25;;;10.42;77.52
1480;BME280;732;51.698;4.886;2024-01-30T10:32:17;102837.84;;;10.56;76.95
1480;BME280;732;51.698;4.886;2024-01-30T10:34:46;102840.75;;;10.65;76.69
1480;BME280;732;51.698;4.886;2024-01-30T10:37:16;102828.25;;;10.54;76.19
1480;BME280;732;51.698;4.886;2024-01-30T10:39:45;102831.63;;;10.67;76.03
1480;BME280;732;51.698;4.886;2024-01-30T10:42:17;102817.06;;;10.49;75.37
1480;BME280;732;51.698;4.886;2024-01-30T10:44:57;102845.16;;;10.66;75.56
1480;BME280;732;51.698;4.886;2024-01-30T10:47:29;102852.56;;;10.62;75.53
1480;BME280;732;51.698;4.886;2024-01-30T10:50:00;102826.75;;;10.27;75.88
1480;BME280;732;51.698;4.886;2024-01-30T10:52:29;102839.28;;;10.26;76.07
1480;BME280;732;51.698;4.886;2024-01-30T10:55:00;102830.75;;;10.21;75.65
1480;BME280;732;51.698;4.886;2024-01-30T10:57:30;102838.19;;;10.40;74.90
1480;BME280;732;51.698;4.886;2024-01-30T11:00:04;102832.34;;;10.24;74.44
1480;BME280;732;51.698;4.886;2024-01-30T11:02:39;102824.16;;;10.14;74.49
1480;BME280;732;51.698;4.886;2024-01-30T11:05:08;102847.38;;;10.25;74.51
1480;BME280;732;51.698;4.886;2024-01-30T11:07:39;102856.19;;;10.50;74.38
1480;BME280;732;51.698;4.886;2024-01-30T11:10:09;102827.47;;;10.29;74.19
1480;BME280;732;51.698;4.886;2024-01-30T11:12:42;102844.59;;;10.15;74.14
1480;BME280;732;51.698;4.886;2024-01-30T11:15:14;102839.38;;;10.25;74.04
1480;BME280;732;51.698;4.886;2024-01-30T11:17:44;102849.06;;;10.14;74.11
1480;BME280;732;51.698;4.886;2024-01-30T11:20:15;102857.53;;;9.97;74.89
1480;BME280;732;51.698;4.886;2024-01-30T11:22:47;102867.06;;;9.64;76.21
1480;BME280;732;51.698;4.886;2024-01-30T11:25:17;102856.88;;;9.45;76.63
1480;BME280;732;51.698;4.886;2024-01-30T11:27:50;102869.88;;;9.25;76.88
1480;BME280;732;51.698;4.886;2024-01-30T11:30:24;102879.78;;;9.23;76.91
1480;BME280;732;51.698;4.886;2024-01-30T11:33:03;102888.50;;;8.88;76.59
1480;BME280;732;51.698;4.886;2024-01-30T11:35:35;102887.63;;;8.88;75.89
1480;BME280;732;51.698;4.886;2024-01-30T11:38:04;102890.06;;;9.04;75.71
1480;BME280;732;51.698;4.886;2024-01-30T11:40:35;102867.00;;;9.03;74.85
1480;BME280;732;51.698;4.886;2024-01-30T11:43:07;102879.91;;;9.22;74.58
1480;BME280;732;51.698;4.886;2024-01-30T11:45:36;102889.44;;;9.50;73.30
1480;BME280;732;51.698;4.886;2024-01-30T11:48:07;102893.84;;;9.38;72.41
1480;BME280;732;51.698;4.886;2024-01-30T11:50:39;102893.84;;;9.38;72.55
1480;BME280;732;51.698;4.886;2024-01-30T11:53:08;102891.38;;;9.35;72.40
1480;BME280;732;51.698;4.886;2024-01-30T11:55:37;102898.88;;;9.43;72.48
1480;BME280;732;51.698;4.886;2024-01-30T11:58:07;102902.44;;;9.30;72.06
1480;BME280;732;51.698;4.886;2024-01-30T12:00:36;102885.81;;;9.01;72.50
1480;BME280;732;51.698;4.886;2024-01-30T12:03:05;102907.91;;;9.03;72.80
1480;BME280;732;51.698;4.886;2024-01-30T12:05:34;102904.81;;;9.09;72.43
1480;BME280;732;51.698;4.886;2024-01-30T12:08:05;102913.44;;;9.26;71.63
1480;BME280;732;51.698;4.886;2024-01-30T12:10:35;102900.31;;;9.23;71.60
1480;BME280;732;51.698;4.886;2024-01-30T12:13:04;102902.38;;;9.43;70.88
1480;BME280;732;51.698;4.886;2024-01-30T12:15:34;102876.00;;;9.02;71.21
1480;BME280;732;51.698;4.886;2024-01-30T12:18:06;102913.03;;;9.19;71.17
1480;BME280;732;51.698;4.886;2024-01-30T12:20:35;102928.16;;;9.19;71.00
1480;BME280;732;51.698;4.886;2024-01-30T12:23:04;102901.63;;;9.04;71.08
1480;BME280;732;51.698;4.886;2024-01-30T12:25:33;102924.47;;;8.95;71.50
1480;BME280;732;51.698;4.886;2024-01-30T12:28:01;102919.13;;;8.70;71.60
1480;BME280;732;51.698;4.886;2024-01-30T12:30:30;102923.69;;;8.67;72.13
1480;BME280;732;51.698;4.886;2024-01-30T12:33:00;102930.84;;;8.67;71.51
1480;BME280;732;51.698;4.886;2024-01-30T12:35:31;102926.78;;;8.61;71.51
1480;BME280;732;51.698;4.886;2024-01-30T12:38:01;102936.91;;;8.56;71.94
1480;BME280;732;51.698;4.886;2024-01-30T12:40:33;102958.78;;;8.61;72.45
1480;BME280;732;51.698;4.886;2024-01-30T12:43:03;102969.72;;;8.16;75.32
1480;BME280;732;51.698;4.886;2024-01-30T12:45:32;102957.97;;;7.79;76.58
1480;BME280;732;51.698;4.886;2024-01-30T12:48:02;102970.03;;;7.84;77.53
1480;BME280;732;51.698;4.886;2024-01-30T12:50:32;102949.31;;;7.61;77.64
1480;BME280;732;51.698;4.886;2024-01-30T12:53:01;102987.72;;;7.85;78.18
1480;BME280;732;51.698;4.886;2024-01-30T12:55:30;102974.78;;;7.79;78.25
1480;BME280;732;51.698;4.886;2024-01-30T12:57:59;102976.78;;;7.76;77.98
1480;BME280;732;51.698;4.886;2024-01-30T13:00:27;102975.09;;;7.75;78.58
1480;BME280;732;51.698;4.886;2024-01-30T13:02:56;102932.47;;;7.75;77.41
1480;BME280;732;51.698;4.886;2024-01-30T13:05:26;102979.25;;;7.93;77.13
1480;BME280;732;51.698;4.886;2024-01-30T13:07:55;102981.72;;;7.82;78.18
1480;BME280;732;51.698;4.886;2024-01-30T13:10:24;102993.81;;;7.73;78.33
1480;BME280;732;51.698;4.886;2024-01-30T13:12:53;102983.31;;;7.57;78.06
1480;BME280;732;51.698;4.886;2024-01-30T13:15:21;102980.63;;;7.43;79.03
1480;BME280;732;51.698;4.886;2024-01-30T13:17:50;102982.91;;;7.49;78.91
1480;BME280;732;51.698;4.886;2024-01-30T13:20:21;102984.88;;;7.74;78.97
1480;BME280;732;51.698;4.886;2024-01-30T13:22:51;102988.31;;;7.62;79.08
1480;BME280;732;51.698;4.886;2024-01-30T13:25:20;102986.59;;;7.61;79.18
1480;BME280;732;51.698;4.886;2024-01-30T13:27:48;102967.59;;;7.38;79.19
1480;BME280;732;51.698;4.886;2024-01-30T13:30:17;102974.53;;;7.41;79.62
1480;BME280;732;51.698;4.886;2024-01-30T13:32:46;102980.38;;;7.47;78.99
1480;BME280;732;51.698;4.886;2024-01-30T13:35:15;102992.31;;;7.26;78.39
1480;BME280;732;51.698;4.886;2024-01-30T13:37:43;102947.28;;;7.08;78.00
1480;BME280;732;51.698;4.886;2024-01-30T13:40:16;102972.63;;;7.28;78.37
1480;BME280;732;51.698;4.886;2024-01-30T13:42:45;102985.03;;;7.44;77.69
1480;BME280;732;51.698;4.886;2024-01-30T13:45:14;102981.97;;;7.50;78.22